Terminal Aerodrome Forecast
Issued by NWS

Home | Current Version | Previous Version | Text Only | Print | Product List | Glossary On
Versions: 1 2 3 4 5 6 7 8 9 10 11 12 13 14 15 16 17 18 19 20 21 22 23 24 25 26
000
FTUS43 KMQT 261123
TAFCMX
TAF
KCMX 261123Z 2612/2712 31013KT P6SM SCT030 BKN110
     FM261300 33018G30KT P6SM VCSH SCT015 BKN030
     FM262000 33013G21KT P6SM SCT030
     FM270100 VRB06KT P6SM SKC=

USA.gov is the U.S. government's official web portal to all federal, state and local government web resources and services.